sensor_id;sensor_type;location;lat;lon;timestamp;P1;durP1;ratioP1;P2;durP2;ratioP2
12846;SDS011;6492;48.128;8.320;2023-01-28T00:01:26;25.93;;;12.77;;
12846;SDS011;6492;48.128;8.320;2023-01-28T00:05:28;26.93;;;13.93;;
12846;SDS011;6492;48.128;8.320;2023-01-28T00:09:31;24.43;;;13.20;;
12846;SDS011;6492;48.128;8.320;2023-01-28T00:13:33;27.33;;;14.23;;
12846;SDS011;6492;48.128;8.320;2023-01-28T00:17:35;22.73;;;12.40;;
12846;SDS011;6492;48.128;8.320;2023-01-28T00:21:37;21.63;;;12.30;;
12846;SDS011;6492;48.128;8.320;2023-01-28T00:25:40;24.03;;;12.47;;
12846;SDS011;6492;48.128;8.320;2023-01-28T00:29:42;29.43;;;13.63;;
12846;SDS011;6492;48.128;8.320;2023-01-28T00:33:43;24.60;;;11.97;;
12846;SDS011;6492;48.128;8.320;2023-01-28T00:37:46;22.53;;;12.73;;
12846;SDS011;6492;48.128;8.320;2023-01-28T00:41:49;24.87;;;12.80;;
12846;SDS011;6492;48.128;8.320;2023-01-28T00:45:51;22.80;;;12.93;;
12846;SDS011;6492;48.128;8.320;2023-01-28T00:49:53;33.70;;;14.60;;
12846;SDS011;6492;48.128;8.320;2023-01-28T00:53:55;24.10;;;13.97;;
12846;SDS011;6492;48.128;8.320;2023-01-28T00:57:58;23.87;;;13.13;;
12846;SDS011;6492;48.128;8.320;2023-01-28T01:02:00;22.67;;;12.27;;
12846;SDS011;6492;48.128;8.320;2023-01-28T01:06:11;23.90;;;13.67;;
12846;SDS011;6492;48.128;8.320;2023-01-28T01:10:16;22.90;;;12.97;;
12846;SDS011;6492;48.128;8.320;2023-01-28T01:14:20;18.93;;;11.17;;
12846;SDS011;6492;48.128;8.320;2023-01-28T01:18:22;22.87;;;12.83;;
12846;SDS011;6492;48.128;8.320;2023-01-28T01:22:24;28.03;;;12.33;;
12846;SDS011;6492;48.128;8.320;2023-01-28T01:26:26;20.20;;;11.87;;
12846;SDS011;6492;48.128;8.320;2023-01-28T01:30:29;20.50;;;10.67;;
12846;SDS011;6492;48.128;8.320;2023-01-28T01:34:31;17.93;;;11.03;;
12846;SDS011;6492;48.128;8.320;2023-01-28T01:38:32;20.70;;;11.57;;
12846;SDS011;6492;48.128;8.320;2023-01-28T01:42:35;17.17;;;11.00;;
12846;SDS011;6492;48.128;8.320;2023-01-28T01:46:40;19.17;;;12.03;;
12846;SDS011;6492;48.128;8.320;2023-01-28T01:50:46;27.27;;;13.70;;
12846;SDS011;6492;48.128;8.320;2023-01-28T01:54:52;23.27;;;13.00;;
12846;SDS011;6492;48.128;8.320;2023-01-28T01:58:59;23.60;;;12.70;;
12846;SDS011;6492;48.128;8.320;2023-01-28T02:03:03;21.53;;;13.63;;
12846;SDS011;6492;48.128;8.320;2023-01-28T02:07:06;30.70;;;13.03;;
12846;SDS011;6492;48.128;8.320;2023-01-28T02:11:09;21.43;;;12.37;;
12846;SDS011;6492;48.128;8.320;2023-01-28T02:15:15;23.40;;;12.77;;
12846;SDS011;6492;48.128;8.320;2023-01-28T02:19:20;22.13;;;12.90;;
12846;SDS011;6492;48.128;8.320;2023-01-28T02:23:35;18.63;;;11.40;;
12846;SDS011;6492;48.128;8.320;2023-01-28T02:28:00;20.97;;;13.33;;
12846;SDS011;6492;48.128;8.320;2023-01-28T02:32:11;20.83;;;13.10;;
12846;SDS011;6492;48.128;8.320;2023-01-28T02:36:21;24.10;;;13.50;;
12846;SDS011;6492;48.128;8.320;2023-01-28T02:40:28;21.77;;;13.47;;
12846;SDS011;6492;48.128;8.320;2023-01-28T02:44:34;20.53;;;12.63;;
12846;SDS011;6492;48.128;8.320;2023-01-28T02:48:36;22.23;;;12.93;;
12846;SDS011;6492;48.128;8.320;2023-01-28T02:52:41;21.47;;;12.47;;
12846;SDS011;6492;48.128;8.320;2023-01-28T02:57:15;22.40;;;12.03;;
12846;SDS011;6492;48.128;8.320;2023-01-28T03:01:27;19.27;;;12.17;;
12846;SDS011;6492;48.128;8.320;2023-01-28T03:05:37;17.83;;;11.67;;
12846;SDS011;6492;48.128;8.320;2023-01-28T03:10:03;19.20;;;11.37;;
12846;SDS011;6492;48.128;8.320;2023-01-28T03:14:08;20.77;;;11.90;;
12846;SDS011;6492;48.128;8.320;2023-01-28T03:18:31;21.87;;;12.20;;
12846;SDS011;6492;48.128;8.320;2023-01-28T03:22:57;21.67;;;11.00;;
12846;SDS011;6492;48.128;8.320;2023-01-28T03:27:27;19.07;;;11.60;;
12846;SDS011;6492;48.128;8.320;2023-01-28T03:31:50;17.53;;;10.93;;
12846;SDS011;6492;48.128;8.320;2023-01-28T03:36:13;18.87;;;10.87;;
12846;SDS011;6492;48.128;8.320;2023-01-28T03:40:33;15.10;;;9.63;;
12846;SDS011;6492;48.128;8.320;2023-01-28T03:44:35;17.77;;;10.93;;
12846;SDS011;6492;48.128;8.320;2023-01-28T03:48:49;21.57;;;11.23;;
12846;SDS011;6492;48.128;8.320;2023-01-28T03:52:52;19.23;;;11.13;;
12846;SDS011;6492;48.128;8.320;2023-01-28T03:57:11;16.57;;;9.90;;
12846;SDS011;6492;48.128;8.320;2023-01-28T04:01:13;14.43;;;10.50;;
12846;SDS011;6492;48.128;8.320;2023-01-28T04:05:15;18.77;;;10.63;;
12846;SDS011;6492;48.128;8.320;2023-01-28T04:09:20;16.50;;;10.47;;
12846;SDS011;6492;48.128;8.320;2023-01-28T04:13:23;20.60;;;11.77;;
12846;SDS011;6492;48.128;8.320;2023-01-28T04:17:24;19.00;;;11.10;;
12846;SDS011;6492;48.128;8.320;2023-01-28T04:21:26;20.00;;;11.80;;
12846;SDS011;6492;48.128;8.320;2023-01-28T04:25:29;17.83;;;10.33;;
12846;SDS011;6492;48.128;8.320;2023-01-28T04:29:31;18.97;;;11.10;;
12846;SDS011;6492;48.128;8.320;2023-01-28T04:33:33;19.03;;;10.37;;
12846;SDS011;6492;48.128;8.320;2023-01-28T04:37:35;15.13;;;10.10;;
12846;SDS011;6492;48.128;8.320;2023-01-28T04:41:38;17.97;;;10.80;;
12846;SDS011;6492;48.128;8.320;2023-01-28T04:45:40;15.17;;;9.43;;
12846;SDS011;6492;48.128;8.320;2023-01-28T04:49:42;16.53;;;9.57;;
12846;SDS011;6492;48.128;8.320;2023-01-28T04:53:44;14.63;;;8.90;;
12846;SDS011;6492;48.128;8.320;2023-01-28T04:57:47;13.83;;;9.53;;
12846;SDS011;6492;48.128;8.320;2023-01-28T05:01:49;17.93;;;10.20;;
12846;SDS011;6492;48.128;8.320;2023-01-28T05:05:51;17.87;;;10.33;;
12846;SDS011;6492;48.128;8.320;2023-01-28T05:09:53;16.67;;;9.47;;
12846;SDS011;6492;48.128;8.320;2023-01-28T05:13:56;17.47;;;9.37;;
12846;SDS011;6492;48.128;8.320;2023-01-28T05:17:57;18.30;;;10.30;;
12846;SDS011;6492;48.128;8.320;2023-01-28T05:22:00;16.57;;;9.83;;
12846;SDS011;6492;48.128;8.320;2023-01-28T05:26:01;16.90;;;10.10;;
12846;SDS011;6492;48.128;8.320;2023-01-28T05:30:05;15.27;;;9.03;;
12846;SDS011;6492;48.128;8.320;2023-01-28T05:34:08;14.60;;;8.53;;
12846;SDS011;6492;48.128;8.320;2023-01-28T05:38:10;13.30;;;8.63;;
12846;SDS011;6492;48.128;8.320;2023-01-28T05:42:12;13.50;;;7.83;;
12846;SDS011;6492;48.128;8.320;2023-01-28T05:46:16;14.90;;;8.93;;
12846;SDS011;6492;48.128;8.320;2023-01-28T05:50:17;13.13;;;8.23;;
12846;SDS011;6492;48.128;8.320;2023-01-28T05:54:19;14.13;;;7.53;;
12846;SDS011;6492;48.128;8.320;2023-01-28T05:58:21;10.90;;;6.83;;
12846;SDS011;6492;48.128;8.320;2023-01-28T06:02:24;11.60;;;7.93;;
12846;SDS011;6492;48.128;8.320;2023-01-28T06:06:27;17.63;;;9.37;;
12846;SDS011;6492;48.128;8.320;2023-01-28T06:10:28;13.70;;;8.70;;
12846;SDS011;6492;48.128;8.320;2023-01-28T06:14:30;11.10;;;6.63;;
12846;SDS011;6492;48.128;8.320;2023-01-28T06:18:33;10.80;;;7.17;;
12846;SDS011;6492;48.128;8.320;2023-01-28T06:22:35;12.30;;;8.23;;
12846;SDS011;6492;48.128;8.320;2023-01-28T06:26:37;9.93;;;6.57;;
12846;SDS011;6492;48.128;8.320;2023-01-28T06:30:39;10.43;;;7.00;;
12846;SDS011;6492;48.128;8.320;2023-01-28T06:34:42;11.50;;;6.47;;
12846;SDS011;6492;48.128;8.320;2023-01-28T06:38:43;9.33;;;6.07;;
12846;SDS011;6492;48.128;8.320;2023-01-28T06:42:45;7.90;;;5.37;;
12846;SDS011;6492;48.128;8.320;2023-01-28T06:46:47;7.93;;;5.20;;
12846;SDS011;6492;48.128;8.320;2023-01-28T06:50:50;8.67;;;5.93;;
12846;SDS011;6492;48.128;8.320;2023-01-28T06:54:52;9.30;;;5.50;;
12846;SDS011;6492;48.128;8.320;2023-01-28T06:58:53;6.73;;;5.07;;
12846;SDS011;6492;48.128;8.320;2023-01-28T07:03:02;7.10;;;5.10;;
12846;SDS011;6492;48.128;8.320;2023-01-28T07:07:05;6.80;;;5.07;;
12846;SDS011;6492;48.128;8.320;2023-01-28T07:11:07;8.87;;;5.40;;
12846;SDS011;6492;48.128;8.320;2023-01-28T07:15:09;6.17;;;5.07;;
12846;SDS011;6492;48.128;8.320;2023-01-28T07:19:12;8.63;;;5.57;;
12846;SDS011;6492;48.128;8.320;2023-01-28T07:23:15;8.07;;;5.43;;
12846;SDS011;6492;48.128;8.320;2023-01-28T07:27:16;7.80;;;5.13;;
12846;SDS011;6492;48.128;8.320;2023-01-28T07:31:18;8.57;;;5.67;;
12846;SDS011;6492;48.128;8.320;2023-01-28T07:35:20;8.63;;;5.80;;
12846;SDS011;6492;48.128;8.320;2023-01-28T07:39:35;10.47;;;6.63;;
12846;SDS011;6492;48.128;8.320;2023-01-28T07:43:43;10.20;;;7.53;;
12846;SDS011;6492;48.128;8.320;2023-01-28T07:47:52;10.63;;;6.77;;
12846;SDS011;6492;48.128;8.320;2023-01-28T07:51:55;10.40;;;7.67;;
12846;SDS011;6492;48.128;8.320;2023-01-28T07:56:01;10.90;;;6.87;;
12846;SDS011;6492;48.128;8.320;2023-01-28T08:00:12;10.40;;;7.47;;
12846;SDS011;6492;48.128;8.320;2023-01-28T08:04:14;11.53;;;6.90;;
12846;SDS011;6492;48.128;8.320;2023-01-28T08:08:16;9.20;;;6.13;;
12846;SDS011;6492;48.128;8.320;2023-01-28T08:12:19;10.37;;;7.07;;
12846;SDS011;6492;48.128;8.320;2023-01-28T08:16:22;10.33;;;6.03;;
12846;SDS011;6492;48.128;8.320;2023-01-28T08:20:24;10.60;;;6.80;;
12846;SDS011;6492;48.128;8.320;2023-01-28T08:24:27;9.70;;;6.63;;
12846;SDS011;6492;48.128;8.320;2023-01-28T08:28:30;9.63;;;6.53;;
12846;SDS011;6492;48.128;8.320;2023-01-28T08:32:32;10.53;;;6.73;;
12846;SDS011;6492;48.128;8.320;2023-01-28T08:36:33;9.63;;;6.67;;
12846;SDS011;6492;48.128;8.320;2023-01-28T08:40:35;11.63;;;7.70;;
12846;SDS011;6492;48.128;8.320;2023-01-28T08:44:39;12.93;;;7.70;;
12846;SDS011;6492;48.128;8.320;2023-01-28T08:48:41;18.77;;;12.77;;
12846;SDS011;6492;48.128;8.320;2023-01-28T08:52:43;10.73;;;6.97;;
12846;SDS011;6492;48.128;8.320;2023-01-28T08:56:45;10.47;;;7.27;;
12846;SDS011;6492;48.128;8.320;2023-01-28T09:00:49;13.40;;;8.47;;
12846;SDS011;6492;48.128;8.320;2023-01-28T09:04:51;12.30;;;7.33;;
12846;SDS011;6492;48.128;8.320;2023-01-28T09:08:55;12.17;;;8.37;;
12846;SDS011;6492;48.128;8.320;2023-01-28T09:12:57;14.97;;;10.23;;
12846;SDS011;6492;48.128;8.320;2023-01-28T09:17:00;12.70;;;9.47;;
12846;SDS011;6492;48.128;8.320;2023-01-28T09:21:03;10.43;;;7.70;;
12846;SDS011;6492;48.128;8.320;2023-01-28T09:25:06;11.07;;;7.30;;
12846;SDS011;6492;48.128;8.320;2023-01-28T09:29:08;10.73;;;7.03;;
12846;SDS011;6492;48.128;8.320;2023-01-28T09:33:11;11.93;;;7.43;;
12846;SDS011;6492;48.128;8.320;2023-01-28T09:37:13;12.63;;;9.00;;
12846;SDS011;6492;48.128;8.320;2023-01-28T09:41:21;8.97;;;6.80;;
12846;SDS011;6492;48.128;8.320;2023-01-28T09:45:27;10.73;;;6.73;;
12846;SDS011;6492;48.128;8.320;2023-01-28T09:49:36;9.93;;;6.93;;
12846;SDS011;6492;48.128;8.320;2023-01-28T09:53:42;9.50;;;7.00;;
12846;SDS011;6492;48.128;8.320;2023-01-28T09:57:49;11.50;;;7.97;;
12846;SDS011;6492;48.128;8.320;2023-01-28T10:01:53;10.63;;;7.27;;
12846;SDS011;6492;48.128;8.320;2023-01-28T10:06:07;11.87;;;7.77;;
12846;SDS011;6492;48.128;8.320;2023-01-28T10:10:19;12.57;;;8.00;;
12846;SDS011;6492;48.128;8.320;2023-01-28T10:14:29;9.40;;;6.33;;
12846;SDS011;6492;48.128;8.320;2023-01-28T10:18:41;12.33;;;8.47;;
12846;SDS011;6492;48.128;8.320;2023-01-28T10:22:48;9.77;;;6.83;;
12846;SDS011;6492;48.128;8.320;2023-01-28T10:26:55;8.43;;;7.00;;
12846;SDS011;6492;48.128;8.320;2023-01-28T10:30:57;17.87;;;12.10;;
12846;SDS011;6492;48.128;8.320;2023-01-28T10:34:59;10.67;;;7.47;;
12846;SDS011;6492;48.128;8.320;2023-01-28T10:39:03;10.23;;;7.43;;
12846;SDS011;6492;48.128;8.320;2023-01-28T10:43:15;9.83;;;6.90;;
12846;SDS011;6492;48.128;8.320;2023-01-28T10:47:19;9.10;;;6.87;;
12846;SDS011;6492;48.128;8.320;2023-01-28T10:51:29;9.93;;;7.40;;
12846;SDS011;6492;48.128;8.320;2023-01-28T10:55:35;10.27;;;7.00;;
12846;SDS011;6492;48.128;8.320;2023-01-28T10:59:46;8.17;;;6.60;;
12846;SDS011;6492;48.128;8.320;2023-01-28T11:03:53;9.07;;;6.77;;
12846;SDS011;6492;48.128;8.320;2023-01-28T11:08:03;10.50;;;7.37;;
12846;SDS011;6492;48.128;8.320;2023-01-28T11:12:18;10.97;;;8.30;;
12846;SDS011;6492;48.128;8.320;2023-01-28T11:16:22;7.60;;;6.23;;
12846;SDS011;6492;48.128;8.320;2023-01-28T11:20:25;8.30;;;6.77;;
12846;SDS011;6492;48.128;8.320;2023-01-28T11:24:29;9.97;;;7.27;;
12846;SDS011;6492;48.128;8.320;2023-01-28T11:28:33;10.03;;;7.73;;
12846;SDS011;6492;48.128;8.320;2023-01-28T11:32:35;8.50;;;7.10;;
12846;SDS011;6492;48.128;8.320;2023-01-28T11:41:28;9.93;;;7.13;;
12846;SDS011;6492;48.128;8.320;2023-01-28T11:45:34;10.40;;;7.73;;
12846;SDS011;6492;48.128;8.320;2023-01-28T11:49:46;10.83;;;8.33;;
12846;SDS011;6492;48.128;8.320;2023-01-28T11:54:10;9.40;;;7.47;;
12846;SDS011;6492;48.128;8.320;2023-01-28T11:58:23;14.03;;;9.83;;
12846;SDS011;6492;48.128;8.320;2023-01-28T12:07:17;13.63;;;9.50;;
12846;SDS011;6492;48.128;8.320;2023-01-28T12:11:29;13.67;;;9.87;;
12846;SDS011;6492;48.128;8.320;2023-01-28T12:16:02;12.07;;;8.30;;
12846;SDS011;6492;48.128;8.320;2023-01-28T12:20:21;13.20;;;8.73;;
12846;SDS011;6492;48.128;8.320;2023-01-28T12:24:42;10.13;;;7.83;;
12846;SDS011;6492;48.128;8.320;2023-01-28T12:29:00;12.30;;;8.70;;
12846;SDS011;6492;48.128;8.320;2023-01-28T12:33:30;10.37;;;8.07;;
12846;SDS011;6492;48.128;8.320;2023-01-28T12:37:50;10.30;;;7.53;;
12846;SDS011;6492;48.128;8.320;2023-01-28T12:42:08;11.50;;;8.13;;
12846;SDS011;6492;48.128;8.320;2023-01-28T12:46:17;10.47;;;7.93;;
12846;SDS011;6492;48.128;8.320;2023-01-28T12:50:30;11.27;;;7.47;;
12846;SDS011;6492;48.128;8.320;2023-01-28T12:54:37;13.73;;;8.63;;
12846;SDS011;6492;48.128;8.320;2023-01-28T12:58:46;12.17;;;8.17;;
12846;SDS011;6492;48.128;8.320;2023-01-28T13:02:52;10.90;;;7.60;;
12846;SDS011;6492;48.128;8.320;2023-01-28T13:07:03;10.77;;;8.23;;
12846;SDS011;6492;48.128;8.320;2023-01-28T13:11:23;11.40;;;8.17;;
12846;SDS011;6492;48.128;8.320;2023-01-28T13:15:30;15.20;;;10.10;;
12846;SDS011;6492;48.128;8.320;2023-01-28T13:19:35;13.10;;;8.43;;
12846;SDS011;6492;48.128;8.320;2023-01-28T13:23:41;12.93;;;9.00;;
12846;SDS011;6492;48.128;8.320;2023-01-28T13:27:52;14.00;;;8.80;;
12846;SDS011;6492;48.128;8.320;2023-01-28T13:31:56;12.67;;;8.43;;
12846;SDS011;6492;48.128;8.320;2023-01-28T13:36:00;10.87;;;7.70;;
12846;SDS011;6492;48.128;8.320;2023-01-28T13:40:16;13.60;;;9.57;;
12846;SDS011;6492;48.128;8.320;2023-01-28T13:44:27;11.50;;;8.60;;
12846;SDS011;6492;48.128;8.320;2023-01-28T14:02:01;11.63;;;8.20;;
12846;SDS011;6492;48.128;8.320;2023-01-28T14:06:27;10.90;;;8.43;;
12846;SDS011;6492;48.128;8.320;2023-01-28T14:10:56;12.33;;;8.23;;
12846;SDS011;6492;48.128;8.320;2023-01-28T14:15:12;11.80;;;8.40;;
12846;SDS011;6492;48.128;8.320;2023-01-28T14:19:27;13.00;;;9.60;;
12846;SDS011;6492;48.128;8.320;2023-01-28T14:23:37;14.63;;;9.60;;
12846;SDS011;6492;48.128;8.320;2023-01-28T14:27:44;18.93;;;11.90;;
12846;SDS011;6492;48.128;8.320;2023-01-28T14:31:51;13.93;;;8.23;;
12846;SDS011;6492;48.128;8.320;2023-01-28T14:35:55;12.80;;;8.40;;
12846;SDS011;6492;48.128;8.320;2023-01-28T14:39:58;13.57;;;7.77;;
12846;SDS011;6492;48.128;8.320;2023-01-28T14:44:01;11.83;;;8.17;;
12846;SDS011;6492;48.128;8.320;2023-01-28T14:48:18;10.13;;;7.60;;
12846;SDS011;6492;48.128;8.320;2023-01-28T14:52:31;12.03;;;8.37;;
12846;SDS011;6492;48.128;8.320;2023-01-28T14:56:51;12.10;;;7.93;;
12846;SDS011;6492;48.128;8.320;2023-01-28T15:01:03;12.13;;;8.53;;
12846;SDS011;6492;48.128;8.320;2023-01-28T15:05:09;15.47;;;11.17;;
12846;SDS011;6492;48.128;8.320;2023-01-28T15:09:16;13.37;;;9.40;;
12846;SDS011;6492;48.128;8.320;2023-01-28T15:13:20;12.83;;;9.03;;
12846;SDS011;6492;48.128;8.320;2023-01-28T15:17:26;12.70;;;9.07;;
12846;SDS011;6492;48.128;8.320;2023-01-28T15:26:07;14.03;;;9.53;;
12846;SDS011;6492;48.128;8.320;2023-01-28T15:30:20;14.53;;;9.37;;
12846;SDS011;6492;48.128;8.320;2023-01-28T15:34:23;11.03;;;8.27;;
12846;SDS011;6492;48.128;8.320;2023-01-28T15:38:29;13.57;;;9.33;;
12846;SDS011;6492;48.128;8.320;2023-01-28T15:42:32;14.03;;;8.73;;
12846;SDS011;6492;48.128;8.320;2023-01-28T15:46:35;14.20;;;9.73;;
12846;SDS011;6492;48.128;8.320;2023-01-28T15:50:40;13.80;;;9.63;;
12846;SDS011;6492;48.128;8.320;2023-01-28T15:54:44;13.07;;;8.60;;
12846;SDS011;6492;48.128;8.320;2023-01-28T15:58:52;13.93;;;9.30;;
12846;SDS011;6492;48.128;8.320;2023-01-28T16:02:55;14.53;;;9.30;;
12846;SDS011;6492;48.128;8.320;2023-01-28T16:07:21;14.27;;;9.70;;
12846;SDS011;6492;48.128;8.320;2023-01-28T16:11:23;15.70;;;9.87;;
12846;SDS011;6492;48.128;8.320;2023-01-28T16:15:29;15.73;;;10.90;;
12846;SDS011;6492;48.128;8.320;2023-01-28T16:19:40;13.80;;;9.53;;
12846;SDS011;6492;48.128;8.320;2023-01-28T16:23:49;14.30;;;9.40;;
12846;SDS011;6492;48.128;8.320;2023-01-28T16:27:52;14.73;;;10.03;;
12846;SDS011;6492;48.128;8.320;2023-01-28T16:31:55;15.20;;;9.80;;
12846;SDS011;6492;48.128;8.320;2023-01-28T16:35:58;15.40;;;9.63;;
12846;SDS011;6492;48.128;8.320;2023-01-28T16:40:00;17.83;;;11.57;;
12846;SDS011;6492;48.128;8.320;2023-01-28T16:44:02;17.77;;;11.20;;
12846;SDS011;6492;48.128;8.320;2023-01-28T16:48:24;20.47;;;12.80;;
12846;SDS011;6492;48.128;8.320;2023-01-28T16:52:26;18.37;;;10.20;;
12846;SDS011;6492;48.128;8.320;2023-01-28T16:56:28;16.30;;;11.10;;
12846;SDS011;6492;48.128;8.320;2023-01-28T17:00:30;17.50;;;10.70;;
12846;SDS011;6492;48.128;8.320;2023-01-28T17:04:37;25.17;;;16.77;;
12846;SDS011;6492;48.128;8.320;2023-01-28T17:13:36;16.83;;;11.33;;
12846;SDS011;6492;48.128;8.320;2023-01-28T17:17:38;18.07;;;10.53;;
12846;SDS011;6492;48.128;8.320;2023-01-28T17:21:43;15.43;;;9.93;;
12846;SDS011;6492;48.128;8.320;2023-01-28T17:30:25;20.70;;;13.77;;
12846;SDS011;6492;48.128;8.320;2023-01-28T17:34:27;18.03;;;10.50;;
12846;SDS011;6492;48.128;8.320;2023-01-28T17:48:08;18.23;;;10.73;;
12846;SDS011;6492;48.128;8.320;2023-01-28T17:52:13;17.20;;;10.33;;
12846;SDS011;6492;48.128;8.320;2023-01-28T17:56:15;18.13;;;10.30;;
12846;SDS011;6492;48.128;8.320;2023-01-28T18:00:20;17.37;;;11.17;;
12846;SDS011;6492;48.128;8.320;2023-01-28T18:04:23;18.63;;;11.67;;
12846;SDS011;6492;48.128;8.320;2023-01-28T18:08:26;16.90;;;10.87;;
12846;SDS011;6492;48.128;8.320;2023-01-28T18:12:30;19.00;;;10.93;;
12846;SDS011;6492;48.128;8.320;2023-01-28T18:16:34;17.23;;;10.73;;
12846;SDS011;6492;48.128;8.320;2023-01-28T18:20:40;18.60;;;11.77;;
12846;SDS011;6492;48.128;8.320;2023-01-28T18:24:50;16.57;;;10.67;;
12846;SDS011;6492;48.128;8.320;2023-01-28T18:28:52;17.83;;;11.20;;
12846;SDS011;6492;48.128;8.320;2023-01-28T18:32:55;17.03;;;10.80;;
12846;SDS011;6492;48.128;8.320;2023-01-28T18:41:28;16.00;;;10.50;;
12846;SDS011;6492;48.128;8.320;2023-01-28T18:49:52;14.53;;;9.83;;
12846;SDS011;6492;48.128;8.320;2023-01-28T18:53:54;15.17;;;9.57;;
12846;SDS011;6492;48.128;8.320;2023-01-28T18:58:04;10.20;;;7.50;;
12846;SDS011;6492;48.128;8.320;2023-01-28T19:02:17;12.77;;;8.40;;
12846;SDS011;6492;48.128;8.320;2023-01-28T19:06:21;12.10;;;7.80;;
12846;SDS011;6492;48.128;8.320;2023-01-28T19:10:23;12.20;;;7.77;;
12846;SDS011;6492;48.128;8.320;2023-01-28T19:14:32;13.63;;;8.57;;
12846;SDS011;6492;48.128;8.320;2023-01-28T19:18:34;14.03;;;9.17;;
12846;SDS011;6492;48.128;8.320;2023-01-28T19:22:37;16.63;;;10.30;;
12846;SDS011;6492;48.128;8.320;2023-01-28T19:26:41;14.87;;;9.57;;
12846;SDS011;6492;48.128;8.320;2023-01-28T19:30:43;13.70;;;8.87;;
12846;SDS011;6492;48.128;8.320;2023-01-28T19:34:45;15.27;;;9.23;;
12846;SDS011;6492;48.128;8.320;2023-01-28T19:38:48;18.30;;;11.07;;
12846;SDS011;6492;48.128;8.320;2023-01-28T19:42:51;15.83;;;10.03;;
12846;SDS011;6492;48.128;8.320;2023-01-28T19:46:53;16.07;;;10.03;;
12846;SDS011;6492;48.128;8.320;2023-01-28T19:50:55;16.20;;;9.93;;
12846;SDS011;6492;48.128;8.320;2023-01-28T19:54:58;14.27;;;9.50;;
12846;SDS011;6492;48.128;8.320;2023-01-28T19:59:00;16.80;;;10.10;;
12846;SDS011;6492;48.128;8.320;2023-01-28T20:03:11;13.57;;;9.90;;
12846;SDS011;6492;48.128;8.320;2023-01-28T20:07:23;16.03;;;9.93;;
12846;SDS011;6492;48.128;8.320;2023-01-28T20:11:29;14.17;;;9.80;;
12846;SDS011;6492;48.128;8.320;2023-01-28T20:19:45;21.83;;;12.10;;
12846;SDS011;6492;48.128;8.320;2023-01-28T20:23:49;16.07;;;11.07;;
12846;SDS011;6492;48.128;8.320;2023-01-28T20:27:54;19.43;;;10.33;;
12846;SDS011;6492;48.128;8.320;2023-01-28T20:31:55;19.63;;;11.50;;
12846;SDS011;6492;48.128;8.320;2023-01-28T20:35:59;20.03;;;12.20;;
12846;SDS011;6492;48.128;8.320;2023-01-28T20:40:01;18.70;;;11.07;;
12846;SDS011;6492;48.128;8.320;2023-01-28T20:44:04;15.57;;;10.40;;
12846;SDS011;6492;48.128;8.320;2023-01-28T20:48:06;16.87;;;10.50;;
12846;SDS011;6492;48.128;8.320;2023-01-28T20:52:08;16.57;;;10.77;;
12846;SDS011;6492;48.128;8.320;2023-01-28T21:00:46;18.13;;;10.17;;
12846;SDS011;6492;48.128;8.320;2023-01-28T21:04:48;17.70;;;12.13;;
12846;SDS011;6492;48.128;8.320;2023-01-28T21:13:26;16.27;;;11.23;;
12846;SDS011;6492;48.128;8.320;2023-01-28T21:17:30;16.47;;;10.50;;
12846;SDS011;6492;48.128;8.320;2023-01-28T21:21:34;21.43;;;11.30;;
12846;SDS011;6492;48.128;8.320;2023-01-28T21:29:45;18.53;;;10.20;;
12846;SDS011;6492;48.128;8.320;2023-01-28T21:33:48;17.23;;;10.83;;
12846;SDS011;6492;48.128;8.320;2023-01-28T21:37:51;18.87;;;10.97;;
12846;SDS011;6492;48.128;8.320;2023-01-28T21:41:53;19.57;;;11.00;;
12846;SDS011;6492;48.128;8.320;2023-01-28T21:45:55;17.27;;;11.27;;
12846;SDS011;6492;48.128;8.320;2023-01-28T21:50:06;16.83;;;10.77;;
12846;SDS011;6492;48.128;8.320;2023-01-28T21:54:09;16.60;;;10.77;;
12846;SDS011;6492;48.128;8.320;2023-01-28T21:58:13;16.80;;;10.43;;
12846;SDS011;6492;48.128;8.320;2023-01-28T22:02:43;15.87;;;10.20;;
12846;SDS011;6492;48.128;8.320;2023-01-28T22:06:47;17.70;;;11.10;;
12846;SDS011;6492;48.128;8.320;2023-01-28T22:10:49;16.27;;;9.93;;
12846;SDS011;6492;48.128;8.320;2023-01-28T22:14:56;18.13;;;9.97;;
12846;SDS011;6492;48.128;8.320;2023-01-28T22:23:30;15.53;;;9.97;;
12846;SDS011;6492;48.128;8.320;2023-01-28T22:27:32;14.17;;;9.60;;
12846;SDS011;6492;48.128;8.320;2023-01-28T22:31:34;15.97;;;9.37;;
12846;SDS011;6492;48.128;8.320;2023-01-28T22:35:37;14.60;;;9.87;;
12846;SDS011;6492;48.128;8.320;2023-01-28T22:39:40;17.37;;;10.17;;
12846;SDS011;6492;48.128;8.320;2023-01-28T22:47:55;14.57;;;9.20;;
12846;SDS011;6492;48.128;8.320;2023-01-28T22:51:57;15.43;;;10.67;;
12846;SDS011;6492;48.128;8.320;2023-01-28T22:56:00;15.70;;;9.90;;
12846;SDS011;6492;48.128;8.320;2023-01-28T23:00:15;18.57;;;11.17;;
12846;SDS011;6492;48.128;8.320;2023-01-28T23:04:17;19.77;;;12.37;;
12846;SDS011;6492;48.128;8.320;2023-01-28T23:08:19;15.87;;;9.57;;
12846;SDS011;6492;48.128;8.320;2023-01-28T23:12:22;15.00;;;10.03;;
12846;SDS011;6492;48.128;8.320;2023-01-28T23:16:24;20.27;;;12.10;;
12846;SDS011;6492;48.128;8.320;2023-01-28T23:20:46;31.03;;;19.13;;
12846;SDS011;6492;48.128;8.320;2023-01-28T23:25:06;20.60;;;12.60;;
12846;SDS011;6492;48.128;8.320;2023-01-28T23:29:10;17.77;;;12.97;;
12846;SDS011;6492;48.128;8.320;2023-01-28T23:33:12;20.40;;;12.27;;
12846;SDS011;6492;48.128;8.320;2023-01-28T23:37:14;21.87;;;12.93;;
12846;SDS011;6492;48.128;8.320;2023-01-28T23:41:15;18.10;;;11.03;;
12846;SDS011;6492;48.128;8.320;2023-01-28T23:45:19;18.23;;;11.80;;
12846;SDS011;6492;48.128;8.320;2023-01-28T23:49:22;16.90;;;10.60;;
12846;SDS011;6492;48.128;8.320;2023-01-28T23:53:24;16.23;;;10.43;;
12846;SDS011;6492;48.128;8.320;2023-01-28T23:57:26;15.53;;;9.63;;
